sensor_id;sensor_type;location;lat;lon;timestamp;P1;P2;P0
77413;PMS7003;66486;49.992;19.164;2023-04-01T00:00:58;2.20;2.20;1.00
77413;PMS7003;66486;49.992;19.164;2023-04-01T00:03:25;3.00;3.00;1.00
77413;PMS7003;66486;49.992;19.164;2023-04-01T00:05:53;0.80;0.80;0.60
77413;PMS7003;66486;49.992;19.164;2023-04-01T00:08:20;23.60;21.80;12.20
77413;PMS7003;66486;49.992;19.164;2023-04-01T00:10:46;3.80;3.60;3.00
77413;PMS7003;66486;49.992;19.164;2023-04-01T00:13:13;1.00;1.00;1.00
77413;PMS7003;66486;49.992;19.164;2023-04-01T00:15:40;1.00;1.00;1.00
77413;PMS7003;66486;49.992;19.164;2023-04-01T00:18:06;3.00;3.00;1.00
77413;PMS7003;66486;49.992;19.164;2023-04-01T00:20:33;3.40;1.80;1.40
77413;PMS7003;66486;49.992;19.164;2023-04-01T00:22:58;3.00;3.00;1.00
77413;PMS7003;66486;49.992;19.164;2023-04-01T00:25:25;1.00;1.00;0.80
77413;PMS7003;66486;49.992;19.164;2023-04-01T00:27:50;1.00;1.00;1.00
77413;PMS7003;66486;49.992;19.164;2023-04-01T00:30:17;0.80;0.40;0.00
77413;PMS7003;66486;49.992;19.164;2023-04-01T00:32:43;1.00;1.00;1.00
77413;PMS7003;66486;49.992;19.164;2023-04-01T00:35:09;0.60;0.60;0.60
77413;PMS7003;66486;49.992;19.164;2023-04-01T00:37:36;1.00;0.40;0.00
77413;PMS7003;66486;49.992;19.164;2023-04-01T00:40:05;0.00;0.00;0.00
77413;PMS7003;66486;49.992;19.164;2023-04-01T00:42:50;0.00;0.00;0.00
77413;PMS7003;66486;49.992;19.164;2023-04-01T00:48:47;1.00;1.00;1.00
77413;PMS7003;66486;49.992;19.164;2023-04-01T00:53:29;1.80;1.80;0.40
77413;PMS7003;66486;49.992;19.164;2023-04-01T00:56:19;0.60;0.60;0.40
77413;PMS7003;66486;49.992;19.164;2023-04-01T00:58:58;1.00;1.00;0.80
77413;PMS7003;66486;49.992;19.164;2023-04-01T01:01:27;3.00;3.00;2.60
77413;PMS7003;66486;49.992;19.164;2023-04-01T01:03:56;2.60;2.60;1.00
77413;PMS7003;66486;49.992;19.164;2023-04-01T01:06:45;1.00;1.00;1.00
77413;PMS7003;66486;49.992;19.164;2023-04-01T01:09:38;1.00;1.00;1.00
77413;PMS7003;66486;49.992;19.164;2023-04-01T01:14:45;0.25;0.25;0.00
77413;PMS7003;66486;49.992;19.164;2023-04-01T01:20:35;1.00;1.00;1.00
77413;PMS7003;66486;49.992;19.164;2023-04-01T01:23:23;0.40;0.00;0.00
77413;PMS7003;66486;49.992;19.164;2023-04-01T01:26:37;0.80;0.80;0.40
77413;PMS7003;66486;49.992;19.164;2023-04-01T01:32:06;1.00;1.00;1.00
77413;PMS7003;66486;49.992;19.164;2023-04-01T01:37:18;0.60;0.60;0.00
77413;PMS7003;66486;49.992;19.164;2023-04-01T01:39:51;0.80;0.00;0.00
77413;PMS7003;66486;49.992;19.164;2023-04-01T01:42:21;1.00;1.00;0.00
77413;PMS7003;66486;49.992;19.164;2023-04-01T01:44:50;0.40;0.40;0.40
77413;PMS7003;66486;49.992;19.164;2023-04-01T01:47:19;0.00;0.00;0.00
77413;PMS7003;66486;49.992;19.164;2023-04-01T01:49:47;3.00;3.00;3.00
77413;PMS7003;66486;49.992;19.164;2023-04-01T01:52:14;1.00;1.00;1.00
77413;PMS7003;66486;49.992;19.164;2023-04-01T01:54:49;1.00;1.00;1.00
77413;PMS7003;66486;49.992;19.164;2023-04-01T01:57:17;1.00;1.00;1.00
77413;PMS7003;66486;49.992;19.164;2023-04-01T01:59:49;1.00;1.00;1.00
77413;PMS7003;66486;49.992;19.164;2023-04-01T02:02:18;1.80;1.80;0.60
77413;PMS7003;66486;49.992;19.164;2023-04-01T02:04:45;1.00;1.00;1.00
77413;PMS7003;66486;49.992;19.164;2023-04-01T02:07:13;3.40;3.40;3.00
77413;PMS7003;66486;49.992;19.164;2023-04-01T02:09:50;1.00;1.00;1.00
77413;PMS7003;66486;49.992;19.164;2023-04-01T02:12:17;1.00;1.00;1.00
77413;PMS7003;66486;49.992;19.164;2023-04-01T02:14:54;3.60;3.00;2.60
77413;PMS7003;66486;49.992;19.164;2023-04-01T02:17:26;3.40;3.40;3.20
77413;PMS7003;66486;49.992;19.164;2023-04-01T02:19:59;3.00;3.00;2.60
77413;PMS7003;66486;49.992;19.164;2023-04-01T02:22:35;4.80;4.80;3.20
77413;PMS7003;66486;49.992;19.164;2023-04-01T02:25:08;2.80;2.60;2.60
77413;PMS7003;66486;49.992;19.164;2023-04-01T02:27:38;3.00;3.00;1.00
77413;PMS7003;66486;49.992;19.164;2023-04-01T02:30:05;2.20;2.20;1.00
77413;PMS7003;66486;49.992;19.164;2023-04-01T02:32:33;2.60;2.60;1.00
77413;PMS7003;66486;49.992;19.164;2023-04-01T02:35:00;3.00;3.00;3.00
77413;PMS7003;66486;49.992;19.164;2023-04-01T02:37:31;1.00;1.00;1.00
77413;PMS7003;66486;49.992;19.164;2023-04-01T02:40:04;1.00;1.00;1.00
77413;PMS7003;66486;49.992;19.164;2023-04-01T02:42:34;2.60;1.80;1.00
77413;PMS7003;66486;49.992;19.164;2023-04-01T02:45:01;3.60;3.60;3.00
77413;PMS7003;66486;49.992;19.164;2023-04-01T02:47:28;5.20;5.20;4.00
77413;PMS7003;66486;49.992;19.164;2023-04-01T02:49:55;3.00;3.00;1.80
77413;PMS7003;66486;49.992;19.164;2023-04-01T02:52:24;3.00;3.00;1.40
77413;PMS7003;66486;49.992;19.164;2023-04-01T02:54:51;3.60;2.20;1.00
77413;PMS7003;66486;49.992;19.164;2023-04-01T02:57:17;4.00;4.00;3.00
77413;PMS7003;66486;49.992;19.164;2023-04-01T02:59:43;3.00;3.00;3.00
77413;PMS7003;66486;49.992;19.164;2023-04-01T03:02:09;1.00;1.00;1.00
77413;PMS7003;66486;49.992;19.164;2023-04-01T03:04:41;4.00;3.60;2.00
77413;PMS7003;66486;49.992;19.164;2023-04-01T03:07:08;3.80;3.80;3.40
77413;PMS7003;66486;49.992;19.164;2023-04-01T03:09:35;4.40;4.40;3.00
77413;PMS7003;66486;49.992;19.164;2023-04-01T03:12:02;3.00;3.00;2.20
77413;PMS7003;66486;49.992;19.164;2023-04-01T03:14:28;1.00;1.00;1.00
77413;PMS7003;66486;49.992;19.164;2023-04-01T03:16:54;1.40;1.00;1.00
77413;PMS7003;66486;49.992;19.164;2023-04-01T03:19:20;1.50;1.50;1.00
77413;PMS7003;66486;49.992;19.164;2023-04-01T03:21:46;1.00;1.00;1.00
77413;PMS7003;66486;49.992;19.164;2023-04-01T03:24:12;3.00;1.00;1.00
77413;PMS7003;66486;49.992;19.164;2023-04-01T03:26:38;1.40;1.40;1.00
77413;PMS7003;66486;49.992;19.164;2023-04-01T03:29:04;0.00;0.00;0.00
77413;PMS7003;66486;49.992;19.164;2023-04-01T03:31:30;4.00;4.00;2.60
77413;PMS7003;66486;49.992;19.164;2023-04-01T03:33:56;3.50;3.00;2.00
77413;PMS7003;66486;49.992;19.164;2023-04-01T03:36:22;4.00;4.00;3.80
77413;PMS7003;66486;49.992;19.164;2023-04-01T03:38:48;3.25;3.00;1.00
77413;PMS7003;66486;49.992;19.164;2023-04-01T03:41:17;6.20;4.00;3.00
77413;PMS7003;66486;49.992;19.164;2023-04-01T03:43:44;3.60;3.60;3.00
77413;PMS7003;66486;49.992;19.164;2023-04-01T03:46:10;1.00;1.00;1.00
77413;PMS7003;66486;49.992;19.164;2023-04-01T03:48:36;1.80;1.80;1.80
77413;PMS7003;66486;49.992;19.164;2023-04-01T03:51:06;1.00;1.00;1.00
77413;PMS7003;66486;49.992;19.164;2023-04-01T03:53:32;3.20;3.00;3.00
77413;PMS7003;66486;49.992;19.164;2023-04-01T03:56:02;3.80;3.00;3.00
77413;PMS7003;66486;49.992;19.164;2023-04-01T03:58:30;3.20;3.20;3.00
77413;PMS7003;66486;49.992;19.164;2023-04-01T04:00:56;3.40;3.40;2.20
77413;PMS7003;66486;49.992;19.164;2023-04-01T04:03:22;3.00;1.00;1.00
77413;PMS7003;66486;49.992;19.164;2023-04-01T04:05:49;4.80;3.40;3.20
77413;PMS7003;66486;49.992;19.164;2023-04-01T04:08:15;1.40;1.40;1.00
77413;PMS7003;66486;49.992;19.164;2023-04-01T04:10:42;1.40;1.40;1.00
77413;PMS7003;66486;49.992;19.164;2023-04-01T04:13:08;4.00;4.00;3.60
77413;PMS7003;66486;49.992;19.164;2023-04-01T04:15:34;3.60;3.60;3.60
77413;PMS7003;66486;49.992;19.164;2023-04-01T04:18:00;3.00;3.00;1.00
77413;PMS7003;66486;49.992;19.164;2023-04-01T04:20:26;1.00;1.00;1.00
77413;PMS7003;66486;49.992;19.164;2023-04-01T04:22:52;4.50;3.00;1.00
77413;PMS7003;66486;49.992;19.164;2023-04-01T04:25:18;5.80;2.20;1.00
77413;PMS7003;66486;49.992;19.164;2023-04-01T04:27:44;3.00;3.00;3.00
77413;PMS7003;66486;49.992;19.164;2023-04-01T04:30:10;1.00;1.00;0.60
77413;PMS7003;66486;49.992;19.164;2023-04-01T04:32:36;6.00;6.00;4.00
77413;PMS7003;66486;49.992;19.164;2023-04-01T04:35:03;8.20;6.00;4.80
77413;PMS7003;66486;49.992;19.164;2023-04-01T04:37:29;10.40;9.60;6.40
77413;PMS7003;66486;49.992;19.164;2023-04-01T04:39:55;4.00;4.00;3.80
77413;PMS7003;66486;49.992;19.164;2023-04-01T04:42:21;4.00;3.50;3.00
77413;PMS7003;66486;49.992;19.164;2023-04-01T04:44:47;3.80;3.80;3.00
77413;PMS7003;66486;49.992;19.164;2023-04-01T04:47:12;3.50;3.50;3.00
77413;PMS7003;66486;49.992;19.164;2023-04-01T04:49:39;4.00;3.00;3.00
77413;PMS7003;66486;49.992;19.164;2023-04-01T04:52:05;3.80;3.80;3.00
77413;PMS7003;66486;49.992;19.164;2023-04-01T04:54:31;5.20;4.60;3.60
77413;PMS7003;66486;49.992;19.164;2023-04-01T04:56:56;6.25;5.50;4.00
77413;PMS7003;66486;49.992;19.164;2023-04-01T04:59:23;3.00;3.00;2.20
77413;PMS7003;66486;49.992;19.164;2023-04-01T05:01:48;3.75;3.75;3.00
77413;PMS7003;66486;49.992;19.164;2023-04-01T05:04:15;4.40;3.60;1.00
77413;PMS7003;66486;49.992;19.164;2023-04-01T05:06:42;3.75;1.50;0.75
77413;PMS7003;66486;49.992;19.164;2023-04-01T05:09:10;4.40;4.40;4.00
77413;PMS7003;66486;49.992;19.164;2023-04-01T05:11:36;5.50;4.00;3.50
77413;PMS7003;66486;49.992;19.164;2023-04-01T05:14:02;6.20;6.20;4.40
77413;PMS7003;66486;49.992;19.164;2023-04-01T05:16:28;7.00;7.00;6.00
77413;PMS7003;66486;49.992;19.164;2023-04-01T05:18:54;9.60;9.60;6.60
77413;PMS7003;66486;49.992;19.164;2023-04-01T05:21:20;7.00;7.00;6.75
77413;PMS7003;66486;49.992;19.164;2023-04-01T05:23:46;7.00;7.00;5.20
77413;PMS7003;66486;49.992;19.164;2023-04-01T05:26:12;12.00;12.00;7.50
77413;PMS7003;66486;49.992;19.164;2023-04-01T05:28:40;9.00;9.00;6.00
77413;PMS7003;66486;49.992;19.164;2023-04-01T05:31:06;8.20;8.20;6.00
77413;PMS7003;66486;49.992;19.164;2023-04-01T05:33:33;7.40;7.00;6.00
77413;PMS7003;66486;49.992;19.164;2023-04-01T05:36:06;6.80;6.20;4.00
77413;PMS7003;66486;49.992;19.164;2023-04-01T05:38:33;7.80;7.40;4.80
77413;PMS7003;66486;49.992;19.164;2023-04-01T05:40:59;7.00;6.00;4.00
77413;PMS7003;66486;49.992;19.164;2023-04-01T05:43:26;6.00;6.00;6.00
77413;PMS7003;66486;49.992;19.164;2023-04-01T05:45:52;7.00;7.00;4.00
77413;PMS7003;66486;49.992;19.164;2023-04-01T05:48:18;7.40;5.60;3.40
77413;PMS7003;66486;49.992;19.164;2023-04-01T05:50:44;7.00;7.00;5.50
77413;PMS7003;66486;49.992;19.164;2023-04-01T05:53:10;6.00;5.60;3.20
77413;PMS7003;66486;49.992;19.164;2023-04-01T05:55:36;6.75;6.25;4.00
77413;PMS7003;66486;49.992;19.164;2023-04-01T05:58:02;6.20;6.20;4.80
77413;PMS7003;66486;49.992;19.164;2023-04-01T06:00:28;4.80;4.80;3.20
77413;PMS7003;66486;49.992;19.164;2023-04-01T06:02:54;6.00;4.00;3.00
77413;PMS7003;66486;49.992;19.164;2023-04-01T06:05:21;4.00;4.00;4.00
77413;PMS7003;66486;49.992;19.164;2023-04-01T06:07:51;4.00;4.00;4.00
77413;PMS7003;66486;49.992;19.164;2023-04-01T06:10:23;3.00;3.00;2.20
77413;PMS7003;66486;49.992;19.164;2023-04-01T06:40:47;5.40;4.00;3.80
77413;PMS7003;66486;49.992;19.164;2023-04-01T06:54:26;20.60;18.40;10.00
77413;PMS7003;66486;49.992;19.164;2023-04-01T06:58:01;3.40;1.00;0.80
77413;PMS7003;66486;49.992;19.164;2023-04-01T07:00:12;2.80;2.80;2.00
77413;PMS7003;66486;49.992;19.164;2023-04-01T07:02:59;1.00;1.00;1.00
77413;PMS7003;66486;49.992;19.164;2023-04-01T07:05:34;1.00;1.00;1.00
77413;PMS7003;66486;49.992;19.164;2023-04-01T07:08:02;1.00;1.00;1.00
77413;PMS7003;66486;49.992;19.164;2023-04-01T07:10:38;0.80;0.80;0.60
77413;PMS7003;66486;49.992;19.164;2023-04-01T07:13:33;4.20;3.20;3.20
77413;PMS7003;66486;49.992;19.164;2023-04-01T07:18:47;3.60;3.60;1.60
77413;PMS7003;66486;49.992;19.164;2023-04-01T07:21:22;1.80;1.80;1.00
77413;PMS7003;66486;49.992;19.164;2023-04-01T07:23:56;4.40;4.00;2.80
77413;PMS7003;66486;49.992;19.164;2023-04-01T07:26:28;3.60;3.20;2.20
77413;PMS7003;66486;49.992;19.164;2023-04-01T07:28:55;2.80;2.80;1.60
77413;PMS7003;66486;49.992;19.164;2023-04-01T07:34:19;2.20;2.20;1.00
77413;PMS7003;66486;49.992;19.164;2023-04-01T07:39:22;1.00;1.00;1.00
77413;PMS7003;66486;49.992;19.164;2023-04-01T07:41:52;3.20;3.20;2.80
77413;PMS7003;66486;49.992;19.164;2023-04-01T07:52:34;2.00;2.00;1.00
77413;PMS7003;66486;49.992;19.164;2023-04-01T08:00:22;1.40;1.40;1.40
77413;PMS7003;66486;49.992;19.164;2023-04-01T08:03:02;3.20;3.20;2.00
77413;PMS7003;66486;49.992;19.164;2023-04-01T08:11:11;2.00;2.00;1.60
77413;PMS7003;66486;49.992;19.164;2023-04-01T08:22:03;1.40;1.40;0.80
77413;PMS7003;66486;49.992;19.164;2023-04-01T08:24:40;8.40;8.40;7.00
77413;PMS7003;66486;49.992;19.164;2023-04-01T08:27:22;2.00;2.00;1.40
77413;PMS7003;66486;49.992;19.164;2023-04-01T08:29:51;27.60;25.20;14.00
77413;PMS7003;66486;49.992;19.164;2023-04-01T08:32:39;26.40;24.20;14.00
77413;PMS7003;66486;49.992;19.164;2023-04-01T08:35:17;2.00;2.00;2.00
77413;PMS7003;66486;49.992;19.164;2023-04-01T08:37:50;2.00;2.00;2.00
77413;PMS7003;66486;49.992;19.164;2023-04-01T09:02:53;4.60;4.60;3.20
77413;PMS7003;66486;49.992;19.164;2023-04-01T09:06:04;8.00;8.00;4.60
77413;PMS7003;66486;49.992;19.164;2023-04-01T09:09:09;7.80;5.00;4.00
77413;PMS7003;66486;49.992;19.164;2023-04-01T09:12:08;6.20;6.00;4.20
77413;PMS7003;66486;49.992;19.164;2023-04-01T09:23:38;8.00;7.00;5.00
77413;PMS7003;66486;49.992;19.164;2023-04-01T09:40:18;8.40;8.00;7.20
77413;PMS7003;66486;49.992;19.164;2023-04-01T09:43:04;10.00;10.00;7.00
77413;PMS7003;66486;49.992;19.164;2023-04-01T09:48:18;12.20;8.00;7.60
77413;PMS7003;66486;49.992;19.164;2023-04-01T10:00:16;4.40;4.40;2.40
77413;PMS7003;66486;49.992;19.164;2023-04-01T10:14:22;7.20;7.20;5.00
77413;PMS7003;66486;49.992;19.164;2023-04-01T10:34:20;7.40;7.00;5.40
77413;PMS7003;66486;49.992;19.164;2023-04-01T10:37:27;6.80;6.80;5.20
77413;PMS7003;66486;49.992;19.164;2023-04-01T10:51:23;4.60;3.60;1.80
77413;PMS7003;66486;49.992;19.164;2023-04-01T10:56:46;4.80;4.00;4.00
77413;PMS7003;66486;49.992;19.164;2023-04-01T10:59:31;5.00;5.00;4.00
77413;PMS7003;66486;49.992;19.164;2023-04-01T11:02:11;7.00;7.00;6.20
77413;PMS7003;66486;49.992;19.164;2023-04-01T11:30:22;7.20;7.20;4.40
77413;PMS7003;66486;49.992;19.164;2023-04-01T11:46:55;2.00;2.00;1.40
77413;PMS7003;66486;49.992;19.164;2023-04-01T11:57:43;1.00;1.00;1.00
77413;PMS7003;66486;49.992;19.164;2023-04-01T12:00:25;1.80;1.80;1.60
77413;PMS7003;66486;49.992;19.164;2023-04-01T12:03:20;1.00;1.00;1.00
77413;PMS7003;66486;49.992;19.164;2023-04-01T12:14:54;1.80;1.80;1.00
77413;PMS7003;66486;49.992;19.164;2023-04-01T12:17:46;4.00;4.00;2.80
77413;PMS7003;66486;49.992;19.164;2023-04-01T12:23:10;1.00;1.00;1.00
77413;PMS7003;66486;49.992;19.164;2023-04-01T12:31:16;4.00;4.00;2.00
77413;PMS7003;66486;49.992;19.164;2023-04-01T12:36:48;4.00;3.20;2.00
77413;PMS7003;66486;49.992;19.164;2023-04-01T12:55:40;1.00;1.00;1.00
77413;PMS7003;66486;49.992;19.164;2023-04-01T13:00:54;7.00;6.00;4.00
77413;PMS7003;66486;49.992;19.164;2023-04-01T13:06:19;5.60;5.60;4.00
77413;PMS7003;66486;49.992;19.164;2023-04-01T13:09:00;22.20;19.40;13.00
77413;PMS7003;66486;49.992;19.164;2023-04-01T13:12:05;48.40;42.00;21.40
77413;PMS7003;66486;49.992;19.164;2023-04-01T13:17:46;9.80;9.80;8.00
77413;PMS7003;66486;49.992;19.164;2023-04-01T13:20:44;13.20;12.80;8.00
77413;PMS7003;66486;49.992;19.164;2023-04-01T13:34:20;6.60;6.60;5.00
77413;PMS7003;66486;49.992;19.164;2023-04-01T13:57:07;10.00;10.00;7.00
77413;PMS7003;66486;49.992;19.164;2023-04-01T14:06:14;6.60;5.80;5.00
77413;PMS7003;66486;49.992;19.164;2023-04-01T14:08:28;7.00;6.60;4.20
77413;PMS7003;66486;49.992;19.164;2023-04-01T14:11:25;7.00;7.00;5.00
77413;PMS7003;66486;49.992;19.164;2023-04-01T14:14:21;4.80;4.80;4.00
77413;PMS7003;66486;49.992;19.164;2023-04-01T14:27:59;16.80;16.80;11.40
77413;PMS7003;66486;49.992;19.164;2023-04-01T14:30:41;24.80;24.80;15.40
77413;PMS7003;66486;49.992;19.164;2023-04-01T14:38:39;11.40;11.40;9.20
77413;PMS7003;66486;49.992;19.164;2023-04-01T14:41:35;12.40;12.40;8.00
77413;PMS7003;66486;49.992;19.164;2023-04-01T14:47:11;13.20;11.40;9.80
77413;PMS7003;66486;49.992;19.164;2023-04-01T14:50:07;8.40;5.80;2.00
77413;PMS7003;66486;49.992;19.164;2023-04-01T14:52:40;12.20;11.80;7.60
77413;PMS7003;66486;49.992;19.164;2023-04-01T14:55:20;11.60;11.20;8.80
77413;PMS7003;66486;49.992;19.164;2023-04-01T14:58:00;8.00;8.00;4.20
77413;PMS7003;66486;49.992;19.164;2023-04-01T15:03:30;9.40;8.20;5.80
77413;PMS7003;66486;49.992;19.164;2023-04-01T15:06:27;9.00;8.60;6.80
77413;PMS7003;66486;49.992;19.164;2023-04-01T15:09:06;11.60;10.20;7.00
77413;PMS7003;66486;49.992;19.164;2023-04-01T15:14:14;3.60;3.60;2.00
77413;PMS7003;66486;49.992;19.164;2023-04-01T15:19:58;6.00;6.00;4.40
77413;PMS7003;66486;49.992;19.164;2023-04-01T15:22:42;5.40;5.40;4.20
77413;PMS7003;66486;49.992;19.164;2023-04-01T15:36:20;6.80;5.80;4.00
77413;PMS7003;66486;49.992;19.164;2023-04-01T15:39:13;13.80;12.40;8.20
77413;PMS7003;66486;49.992;19.164;2023-04-01T15:52:43;6.20;6.20;2.00
77413;PMS7003;66486;49.992;19.164;2023-04-01T16:21:01;7.40;7.40;5.60
77413;PMS7003;66486;49.992;19.164;2023-04-01T16:26:08;34.20;33.60;24.80
77413;PMS7003;66486;49.992;19.164;2023-04-01T16:28:50;3.40;3.00;1.00
77413;PMS7003;66486;49.992;19.164;2023-04-01T16:36:49;15.20;15.20;12.40
77413;PMS7003;66486;49.992;19.164;2023-04-01T16:47:35;35.60;34.00;27.60
77413;PMS7003;66486;49.992;19.164;2023-04-01T16:50:13;22.00;22.00;14.20
77413;PMS7003;66486;49.992;19.164;2023-04-01T16:52:58;27.00;26.60;21.20
77413;PMS7003;66486;49.992;19.164;2023-04-01T16:58:21;17.20;17.20;12.20
77413;PMS7003;66486;49.992;19.164;2023-04-01T17:00:58;25.60;24.80;14.60
77413;PMS7003;66486;49.992;19.164;2023-04-01T17:03:36;35.60;35.20;24.60
77413;PMS7003;66486;49.992;19.164;2023-04-01T17:11:54;14.40;12.80;6.20
77413;PMS7003;66486;49.992;19.164;2023-04-01T17:17:32;16.00;16.00;12.40
77413;PMS7003;66486;49.992;19.164;2023-04-01T17:20:12;20.80;19.20;13.20
77413;PMS7003;66486;49.992;19.164;2023-04-01T17:30:49;12.00;11.60;8.60
77413;PMS7003;66486;49.992;19.164;2023-04-01T17:33:48;15.00;12.80;9.60
77413;PMS7003;66486;49.992;19.164;2023-04-01T17:36:32;11.60;11.20;8.20
77413;PMS7003;66486;49.992;19.164;2023-04-01T17:39:29;13.20;12.00;7.40
77413;PMS7003;66486;49.992;19.164;2023-04-01T17:58:18;29.20;28.80;19.00
77413;PMS7003;66486;49.992;19.164;2023-04-01T18:27:38;44.60;38.20;24.00
77413;PMS7003;66486;49.992;19.164;2023-04-01T18:35:52;41.20;38.60;21.80
77413;PMS7003;66486;49.992;19.164;2023-04-01T18:38:33;34.80;31.80;20.60
77413;PMS7003;66486;49.992;19.164;2023-04-01T18:49:33;25.00;21.40;14.60
77413;PMS7003;66486;49.992;19.164;2023-04-01T18:55:29;23.40;22.00;12.00
77413;PMS7003;66486;49.992;19.164;2023-04-01T19:01:16;21.60;20.20;10.20
77413;PMS7003;66486;49.992;19.164;2023-04-01T19:03:48;36.60;35.20;18.40
77413;PMS7003;66486;49.992;19.164;2023-04-01T19:06:32;22.00;22.00;20.20
77413;PMS7003;66486;49.992;19.164;2023-04-01T19:09:24;29.60;27.00;20.60
77413;PMS7003;66486;49.992;19.164;2023-04-01T19:20:37;22.40;22.40;15.00
77413;PMS7003;66486;49.992;19.164;2023-04-01T19:23:38;20.20;20.20;15.00
77413;PMS7003;66486;49.992;19.164;2023-04-01T19:29:09;22.40;20.40;13.40
77413;PMS7003;66486;49.992;19.164;2023-04-01T19:53:54;19.60;18.60;13.00
77413;PMS7003;66486;49.992;19.164;2023-04-01T19:56:24;25.00;24.40;13.00
77413;PMS7003;66486;49.992;19.164;2023-04-01T20:04:45;19.00;19.00;13.40
77413;PMS7003;66486;49.992;19.164;2023-04-01T20:07:38;21.00;19.80;15.60
77413;PMS7003;66486;49.992;19.164;2023-04-01T20:10:13;22.20;22.20;12.20
77413;PMS7003;66486;49.992;19.164;2023-04-01T20:15:55;24.00;19.20;12.80
77413;PMS7003;66486;49.992;19.164;2023-04-01T20:18:37;18.60;18.60;11.20
77413;PMS7003;66486;49.992;19.164;2023-04-01T20:26:23;93.40;71.20;39.40
77413;PMS7003;66486;49.992;19.164;2023-04-01T20:34:21;19.00;18.60;12.00
77413;PMS7003;66486;49.992;19.164;2023-04-01T21:04:03;31.00;28.80;14.20
77413;PMS7003;66486;49.992;19.164;2023-04-01T21:12:46;36.80;33.00;20.60
77413;PMS7003;66486;49.992;19.164;2023-04-01T21:18:00;34.80;32.80;21.20
77413;PMS7003;66486;49.992;19.164;2023-04-01T21:32:03;41.60;36.60;24.60
77413;PMS7003;66486;49.992;19.164;2023-04-01T22:05:30;35.80;33.20;19.00
77413;PMS7003;66486;49.992;19.164;2023-04-01T22:19:24;38.00;36.00;22.00
77413;PMS7003;66486;49.992;19.164;2023-04-01T22:22:18;28.40;27.80;18.00
77413;PMS7003;66486;49.992;19.164;2023-04-01T22:25:02;33.60;31.80;18.40
77413;PMS7003;66486;49.992;19.164;2023-04-01T22:30:23;29.60;27.20;16.00
77413;PMS7003;66486;49.992;19.164;2023-04-01T22:38:07;29.40;26.00;19.00
77413;PMS7003;66486;49.992;19.164;2023-04-01T22:40:42;25.20;24.20;15.80
77413;PMS7003;66486;49.992;19.164;2023-04-01T22:43:16;32.60;31.40;15.60
77413;PMS7003;66486;49.992;19.164;2023-04-01T22:56:36;36.60;34.60;20.60
77413;PMS7003;66486;49.992;19.164;2023-04-01T23:02:03;29.20;26.80;16.00
77413;PMS7003;66486;49.992;19.164;2023-04-01T23:04:38;27.80;27.80;18.80
77413;PMS7003;66486;49.992;19.164;2023-04-01T23:08:20;32.00;30.60;17.20
77413;PMS7003;66486;49.992;19.164;2023-04-01T23:10:14;39.40;36.60;24.80
77413;PMS7003;66486;49.992;19.164;2023-04-01T23:12:44;33.40;31.00;22.00
77413;PMS7003;66486;49.992;19.164;2023-04-01T23:15:12;37.80;33.00;21.00
77413;PMS7003;66486;49.992;19.164;2023-04-01T23:17:56;41.20;36.20;18.20
77413;PMS7003;66486;49.992;19.164;2023-04-01T23:20:50;40.80;40.20;25.00
77413;PMS7003;66486;49.992;19.164;2023-04-01T23:23:26;42.80;40.40;25.80
77413;PMS7003;66486;49.992;19.164;2023-04-01T23:26:30;40.80;37.00;20.60
77413;PMS7003;66486;49.992;19.164;2023-04-01T23:28:55;47.60;44.60;23.80
77413;PMS7003;66486;49.992;19.164;2023-04-01T23:31:29;50.40;41.40;27.00
77413;PMS7003;66486;49.992;19.164;2023-04-01T23:33:56;41.20;40.00;24.80
77413;PMS7003;66486;49.992;19.164;2023-04-01T23:36:28;42.00;40.40;22.00
77413;PMS7003;66486;49.992;19.164;2023-04-01T23:39:03;32.40;28.80;16.40
77413;PMS7003;66486;49.992;19.164;2023-04-01T23:41:36;36.80;36.00;24.20
77413;PMS7003;66486;49.992;19.164;2023-04-01T23:44:12;38.40;36.20;22.00
77413;PMS7003;66486;49.992;19.164;2023-04-01T23:46:40;18.80;18.80;16.20
77413;PMS7003;66486;49.992;19.164;2023-04-01T23:49:14;47.40;41.40;21.20
77413;PMS7003;66486;49.992;19.164;2023-04-01T23:51:52;40.80;39.80;25.00
77413;PMS7003;66486;49.992;19.164;2023-04-01T23:57:09;47.20;45.20;27.40
77413;PMS7003;66486;49.992;19.164;2023-04-01T23:59:38;30.40;30.00;25.00
